createdAt,value
2016-08-09T00:00:12.717Z,97.13
2016-08-09T00:01:12.703Z,97.23
2016-08-09T00:02:11.989Z,96.84
2016-08-09T00:03:11.978Z,97.23
2016-08-09T00:04:11.966Z,97.61
2016-08-09T00:05:11.953Z,97.61
2016-08-09T00:06:12.653Z,97.23
2016-08-09T00:07:12.651Z,97.33
2016-08-09T00:08:11.926Z,97.04
2016-08-09T00:09:11.921Z,97.04
2016-08-09T00:10:12.610Z,96.84
2016-08-09T00:11:12.601Z,97.13
2016-08-09T00:12:11.886Z,97.52
2016-08-09T00:13:12.580Z,98.28
2016-08-09T00:14:11.861Z,98.18
2016-08-09T00:15:11.851Z,97.99
2016-08-09T00:16:12.549Z,97.9
2016-08-09T00:17:12.536Z,97.71
2016-08-09T00:18:11.821Z,97.9
2016-08-09T00:19:11.810Z,97.71
2016-08-09T00:20:11.798Z,98.09
2016-08-09T00:21:11.790Z,98.38
2016-08-09T00:22:12.500Z,98.28
2016-08-09T00:23:11.766Z,98.09
2016-08-09T00:24:11.753Z,98.57
2016-08-09T00:25:11.756Z,98.85
2016-08-09T00:26:11.740Z,98.38
2016-08-09T00:27:11.724Z,98.57
2016-08-09T00:28:12.434Z,98.95
2016-08-09T00:29:12.420Z,99.09
2016-08-09T00:30:11.699Z,98.75
2016-08-09T00:31:12.389Z,99.09
2016-08-09T00:32:11.674Z,98.9
2016-08-09T00:33:11.661Z,99.43
2016-08-09T00:34:12.364Z,99.04
2016-08-09T00:35:11.641Z,99.04
2016-08-09T00:36:11.632Z,99.38
2016-08-09T00:37:11.621Z,99.52
2016-08-09T00:38:12.319Z,99.43
2016-08-09T00:39:12.306Z,99.57
2016-08-09T00:40:11.592Z,99.71
2016-08-09T00:41:11.586Z,99.76
2016-08-09T00:42:12.285Z,99.57
2016-08-09T00:43:12.264Z,99.48
2016-08-09T00:44:11.555Z,99.48
2016-08-09T00:45:11.539Z,99.81
2016-08-09T00:46:12.237Z,99.66
2016-08-09T00:47:11.518Z,98.8
2016-08-09T00:48:11.507Z,98.61
2016-08-09T00:49:12.206Z,98.71
2016-08-09T00:50:12.193Z,98.75
2016-08-09T00:51:11.482Z,98.75
2016-08-09T00:52:11.470Z,98.66
2016-08-09T00:53:11.453Z,98.75
2016-08-09T00:54:11.446Z,99.14
2016-08-09T00:55:11.450Z,98.75
2016-08-09T00:56:12.126Z,99.04
2016-08-09T00:57:11.415Z,98.85
2016-08-09T00:58:11.400Z,99.04
2016-08-09T00:59:11.387Z,98.85
2016-08-09T01:00:11.380Z,99.04
2016-08-09T01:01:12.084Z,99.24
2016-08-09T01:02:11.358Z,99.43
2016-08-09T01:03:12.056Z,99.43
2016-08-09T01:04:11.540Z,99.71
2016-08-09T01:05:12.045Z,99.04
2016-08-09T01:06:11.318Z,99.71
2016-08-09T01:07:11.307Z,99.04
2016-08-09T01:08:11.300Z,99.33
2016-08-09T01:09:11.283Z,99.81
2016-08-09T01:10:11.981Z,99.04
2016-08-09T01:11:11.263Z,98.95
2016-08-09T01:12:11.961Z,98.75
2016-08-09T01:13:11.245Z,98.85
2016-08-09T01:14:11.230Z,98.75
2016-08-09T01:15:11.928Z,99.24
2016-08-09T01:16:11.215Z,98.85
2016-08-09T01:17:11.201Z,99.24
2016-08-09T01:18:11.899Z,99.24
2016-08-09T01:19:11.181Z,98.85
2016-08-09T01:20:11.171Z,99.24
2016-08-09T01:21:11.876Z,98.66
2016-08-09T01:22:11.855Z,98.85
2016-08-09T01:23:11.848Z,98.85
2016-08-09T01:24:11.128Z,98.66
2016-08-09T01:25:11.130Z,99.14
2016-08-09T01:26:11.110Z,98.95
2016-08-09T01:27:11.804Z,98.95
2016-08-09T01:28:11.086Z,99.71
2016-08-09T01:29:11.077Z,99.9
2016-08-09T01:30:11.774Z,99.43
2016-08-09T01:31:11.051Z,99.43
2016-08-09T01:33:11.037Z,99.62
2016-08-09T01:34:11.034Z,99.9
2016-08-09T01:35:11.722Z,99.52
2016-08-09T01:36:11.005Z,99.33
2016-08-09T01:37:10.994Z,99.04
2016-08-09T01:38:10.986Z,98.95
2016-08-09T01:39:10.973Z,99.81
2016-08-09T01:40:10.962Z,99.99
2016-08-09T01:41:11.658Z,99.99
2016-08-09T01:42:10.949Z,99.99
2016-08-09T01:43:10.935Z,99.99
2016-08-09T01:44:10.921Z,99.62
2016-08-09T01:45:10.915Z,99.43
2016-08-09T01:46:11.604Z,99.33
2016-08-09T01:47:11.593Z,99.24
2016-08-09T01:48:10.885Z,99.24
2016-08-09T01:49:10.869Z,98.38
2016-08-09T01:50:10.860Z,98.47
2016-08-09T01:51:10.849Z,98.38
2016-08-09T01:52:10.840Z,98.66
2016-08-09T01:53:10.831Z,98.85
2016-08-09T01:54:10.818Z,98.38
2016-08-09T01:55:11.511Z,98.66
2016-08-09T01:56:11.504Z,99.24
2016-08-09T01:57:10.789Z,99.62
2016-08-09T01:58:10.774Z,99.71
2016-08-09T01:59:10.764Z,99.33
2016-08-09T02:00:10.755Z,99.33
2016-08-09T02:01:10.745Z,99.14
2016-08-09T02:02:11.441Z,99.71
2016-08-09T02:03:10.729Z,99.52
2016-08-09T02:04:10.712Z,99.81
2016-08-09T02:05:10.704Z,99.62
2016-08-09T02:06:11.409Z,99.62
2016-08-09T02:07:10.686Z,99.24
2016-08-09T02:08:10.672Z,99.14
2016-08-09T02:09:10.662Z,99.24
2016-08-09T02:10:10.651Z,99.04
2016-08-09T02:11:10.643Z,99.24
2016-08-09T02:12:11.338Z,99.33
2016-08-09T02:13:10.619Z,99.14
2016-08-09T02:14:10.609Z,99.43
2016-08-09T02:15:10.603Z,99.04
2016-08-09T02:16:10.593Z,98.75
2016-08-09T02:17:10.577Z,98.47
2016-08-09T02:18:11.276Z,98.38
2016-08-09T02:19:11.267Z,98.75
2016-08-09T02:20:11.253Z,98.47
2016-08-09T02:21:10.539Z,98.38
2016-08-09T02:22:11.241Z,98.57
2016-08-09T02:23:10.518Z,98.57
2016-08-09T02:24:10.506Z,98.85
2016-08-09T02:25:10.496Z,99.24
2016-08-09T02:26:11.203Z,99.14
2016-08-09T02:27:11.187Z,98.66
2016-08-09T02:28:11.171Z,99.04
2016-08-09T02:29:10.457Z,98.75
2016-08-09T02:30:11.158Z,99.14
2016-08-09T02:31:11.148Z,98.66
2016-08-09T02:32:11.133Z,98.75
2016-08-09T02:33:11.127Z,99.24
2016-08-09T02:34:11.111Z,99.04
2016-08-09T02:35:10.396Z,98.57
2016-08-09T02:36:10.383Z,98.47
2016-08-09T02:37:11.078Z,98.28
2016-08-09T02:38:10.369Z,98.18
2016-08-09T02:39:10.351Z,98.09
2016-08-09T02:40:11.050Z,98.09
2016-08-09T02:41:10.337Z,98.38
2016-08-09T02:42:11.032Z,98.85
2016-08-09T02:43:11.026Z,98.75
2016-08-09T02:44:10.306Z,98.85
2016-08-09T02:45:10.288Z,98.28
2016-08-09T02:46:10.277Z,98.18
2016-08-09T02:47:10.276Z,98.09
2016-08-09T02:48:10.261Z,98.28
2016-08-09T02:49:10.245Z,98.09
2016-08-09T02:50:10.238Z,98.38
2016-08-09T02:51:10.229Z,98.09
2016-08-09T02:52:10.219Z,98.28
2016-08-09T02:53:10.915Z,97.8
2016-08-09T02:54:10.902Z,97.61
2016-08-09T02:55:10.188Z,97.33
2016-08-09T02:56:10.180Z,97.13
2016-08-09T02:57:10.168Z,98.09
2016-08-09T02:58:10.155Z,98.09
2016-08-09T02:59:10.143Z,98.09
2016-08-09T03:00:10.141Z,97.9
2016-08-09T03:01:10.832Z,97.8
2016-08-09T03:02:10.113Z,98.28
2016-08-09T03:03:10.809Z,98.18
2016-08-09T03:04:11.003Z,98.09
2016-08-09T03:05:10.084Z,98.09
2016-08-09T03:06:10.079Z,97.99
2016-08-09T03:07:10.066Z,97.9
2016-08-09T03:08:10.053Z,98.09
2016-08-09T03:09:10.049Z,98.09
2016-08-09T03:10:10.030Z,98.09
2016-08-09T03:11:10.025Z,97.8
2016-08-09T03:12:10.723Z,98.47
2016-08-09T03:13:10.709Z,98.75
2016-08-09T03:14:09.995Z,98.57
2016-08-09T03:15:09.982Z,98.66
2016-08-09T03:16:10.680Z,98.28
2016-08-09T03:17:09.957Z,98.28
2016-08-09T03:18:09.950Z,97.99
2016-08-09T03:19:09.936Z,98.57
2016-08-09T03:20:10.634Z,98.75
2016-08-09T03:21:10.625Z,98.66
2016-08-09T03:22:10.614Z,98.57
2016-08-09T03:23:09.898Z,98.47
2016-08-09T03:24:10.603Z,98.28
2016-08-09T03:25:10.583Z,97.99
2016-08-09T03:26:09.865Z,98.75
2016-08-09T03:27:09.855Z,98.57
2016-08-09T03:28:10.558Z,98.09
2016-08-09T03:29:09.837Z,98.38
2016-08-09T03:30:09.822Z,97.71
2016-08-09T03:31:09.815Z,98.09
2016-08-09T03:32:10.512Z,98.18
2016-08-09T03:33:10.509Z,98.28
2016-08-09T03:34:09.782Z,98.28
2016-08-09T03:35:09.771Z,98.47
2016-08-09T03:36:09.762Z,98.28
2016-08-09T03:37:09.758Z,98.57
2016-08-09T03:38:09.740Z,98.38
2016-08-09T03:39:10.470Z,98.38
2016-08-09T03:40:09.723Z,98.47
2016-08-09T03:41:09.710Z,98.57
2016-08-09T03:42:10.409Z,98.57
2016-08-09T03:43:10.402Z,98.09
2016-08-09T03:44:09.686Z,98.38
2016-08-09T03:45:09.672Z,98.09
2016-08-09T03:46:09.661Z,98.28
2016-08-09T03:47:10.360Z,98.09
2016-08-09T03:48:10.343Z,98.47
2016-08-09T03:49:10.337Z,97.99
2016-08-09T03:50:09.625Z,97.9
2016-08-09T03:51:10.317Z,98.38
2016-08-09T03:52:09.603Z,98.09
2016-08-09T03:53:09.586Z,98.28
2016-08-09T03:54:09.582Z,98.18
2016-08-09T03:55:09.566Z,98.47
2016-08-09T03:56:09.559Z,98.09
2016-08-09T03:57:09.548Z,98.09
2016-08-09T03:58:09.542Z,98.38
2016-08-09T03:59:10.231Z,98.57
2016-08-09T04:00:09.516Z,98.57
2016-08-09T04:01:10.222Z,98.66
2016-08-09T04:02:09.496Z,99.24
2016-08-09T04:03:10.190Z,99.04
2016-08-09T04:04:10.184Z,99.33
2016-08-09T04:05:09.469Z,99.71
2016-08-09T04:06:09.455Z,99.43
2016-08-09T04:07:09.445Z,99.71
2016-08-09T04:08:09.431Z,99.71
2016-08-09T04:09:09.422Z,99.81
2016-08-09T04:10:10.118Z,99.24
2016-08-09T04:11:09.408Z,99.71
2016-08-09T04:12:10.100Z,99.71
2016-08-09T04:13:10.106Z,99.99
2016-08-09T04:14:11.050Z,99.99
2016-08-09T04:15:09.360Z,99.99
2016-08-09T04:16:09.348Z,99.99
2016-08-09T04:17:09.339Z,99.99
2016-08-09T04:18:10.035Z,99.99
2016-08-09T04:19:09.321Z,99.71
2016-08-09T04:20:10.016Z,99.81
2016-08-09T04:21:09.298Z,99.62
2016-08-09T04:22:09.306Z,99.81
2016-08-09T04:23:09.280Z,99.24
2016-08-09T04:24:09.977Z,99.24
2016-08-09T04:25:09.257Z,99.33
2016-08-09T04:26:09.956Z,99.14
2016-08-09T04:27:09.944Z,99.04
2016-08-09T04:28:09.935Z,99.24
2016-08-09T04:29:09.217Z,99.14
2016-08-09T04:30:09.208Z,99.14
2016-08-09T04:31:09.197Z,98.95
2016-08-09T04:32:09.185Z,99.71
2016-08-09T04:33:09.886Z,99.33
2016-08-09T04:34:09.872Z,98.85
2016-08-09T04:35:09.864Z,99.71
2016-08-09T04:36:09.145Z,99.04
2016-08-09T04:37:09.843Z,98.95
2016-08-09T04:38:09.126Z,98.66
2016-08-09T04:39:09.114Z,98.75
2016-08-09T04:40:09.812Z,98.38
2016-08-09T04:41:09.092Z,98.38
2016-08-09T04:42:09.082Z,98.85
2016-08-09T04:43:09.071Z,98.09
2016-08-09T04:44:09.774Z,98.57
2016-08-09T04:45:09.761Z,98.66
2016-08-09T04:46:09.045Z,98.38
2016-08-09T04:47:09.034Z,98.18
2016-08-09T04:48:09.019Z,97.9
2016-08-09T04:49:09.727Z,97.9
2016-08-09T04:50:09.714Z,98.28
2016-08-09T04:51:08.989Z,98.09
2016-08-09T04:52:08.986Z,98.28
2016-08-09T04:53:08.970Z,97.8
2016-08-09T04:54:09.666Z,98.09
2016-08-09T04:55:08.957Z,98.38
2016-08-09T04:56:09.650Z,98.28
2016-08-09T04:57:08.931Z,98.28
2016-08-09T04:58:08.917Z,98.18
2016-08-09T04:59:08.911Z,97.9
2016-08-09T05:00:08.909Z,97.9
2016-08-09T05:01:09.609Z,98.47
2016-08-09T05:02:08.879Z,98.75
2016-08-09T05:03:09.579Z,98.75
2016-08-09T05:04:09.060Z,99.24
2016-08-09T05:05:09.551Z,98.66
2016-08-09T05:06:08.838Z,98.75
2016-08-09T05:07:08.828Z,99.71
2016-08-09T05:08:08.820Z,99.9
2016-08-09T05:09:08.810Z,99.43
2016-08-09T05:10:09.507Z,99.52
2016-08-09T05:11:08.890Z,99.33
2016-08-09T05:12:08.778Z,99.67
2016-08-09T05:13:08.763Z,99.71
2016-08-09T05:14:09.460Z,99.76
2016-08-09T05:15:09.452Z,99.99
2016-08-09T05:16:08.737Z,99.99
2016-08-09T05:17:08.723Z,99.99
2016-08-09T05:18:09.421Z,99.99
2016-08-09T05:19:09.413Z,99.99
2016-08-09T05:20:08.693Z,99.99
2016-08-09T05:21:08.687Z,99.99
2016-08-09T05:22:08.675Z,99.99
2016-08-09T05:23:09.367Z,99.99
2016-08-09T05:24:08.652Z,99.99
2016-08-09T05:25:08.661Z,99.99
2016-08-09T05:26:08.635Z,99.99
2016-08-09T05:27:08.623Z,99.99
2016-08-09T05:28:08.623Z,99.99
2016-08-09T05:29:08.601Z,99.99
2016-08-09T05:30:08.590Z,99.99
2016-08-09T05:31:08.587Z,99.99
2016-08-09T05:32:08.576Z,99.99
2016-08-09T05:33:08.567Z,99.99
2016-08-09T05:34:09.262Z,99.99
2016-08-09T05:35:08.547Z,99.99
2016-08-09T05:36:09.240Z,99.99
2016-08-09T05:37:08.522Z,99.99
2016-08-09T05:38:08.511Z,99.99
2016-08-09T05:39:08.509Z,99.99
2016-08-09T05:40:09.204Z,99.99
2016-08-09T05:41:09.190Z,99.96
2016-08-09T05:42:08.476Z,99.99
2016-08-09T05:43:09.169Z,99.99
2016-08-09T05:44:08.453Z,99.99
2016-08-09T05:45:08.442Z,99.99
2016-08-09T05:46:08.434Z,99.99
2016-08-09T05:47:09.132Z,99.99
2016-08-09T05:48:08.403Z,99.99
2016-08-09T05:49:08.404Z,99.99
2016-08-09T05:50:08.396Z,99.99
2016-08-09T05:51:08.383Z,99.99
2016-08-09T05:52:08.370Z,99.99
2016-08-09T05:53:08.368Z,99.99
2016-08-09T05:54:09.065Z,99.99
2016-08-09T05:55:08.343Z,99.99
2016-08-09T05:56:08.332Z,99.99
2016-08-09T05:57:08.321Z,99.99
2016-08-09T05:58:09.018Z,99.99
2016-08-09T05:59:09.012Z,99.99
2016-08-09T06:00:09.048Z,99.99
2016-08-09T06:01:08.286Z,99.99
2016-08-09T06:02:08.978Z,99.99
2016-08-09T06:03:08.263Z,99.99
2016-08-09T06:04:08.955Z,99.99
2016-08-09T06:05:08.240Z,99.99
2016-08-09T06:06:08.242Z,99.99
2016-08-09T06:07:08.929Z,99.99
2016-08-09T06:08:08.920Z,99.99
2016-08-09T06:09:08.915Z,99.99
2016-08-09T06:10:08.190Z,99.99
2016-08-09T06:11:08.179Z,99.99
2016-08-09T06:12:08.876Z,99.99
2016-08-09T06:13:08.867Z,99.99
2016-08-09T06:14:08.854Z,99.99
2016-08-09T06:15:08.848Z,99.99
2016-08-09T06:16:08.132Z,99.99
2016-08-09T06:17:08.825Z,99.99
2016-08-09T06:18:08.112Z,99.99
2016-08-09T06:19:08.098Z,99.99
2016-08-09T06:20:08.093Z,99.99
2016-08-09T06:21:08.080Z,99.05
2016-08-09T06:22:08.069Z,99.52
2016-08-09T06:23:08.768Z,99.43
2016-08-09T06:24:08.049Z,97.9
2016-08-09T06:25:08.756Z,97.52
2016-08-09T06:26:08.032Z,97.95
2016-08-09T06:27:08.020Z,97.66
2016-08-09T06:28:08.013Z,97.18
2016-08-09T06:29:08.707Z,96.89
2016-08-09T06:30:07.992Z,97.18
2016-08-09T06:31:08.691Z,96.13
2016-08-09T06:32:07.976Z,95.94
2016-08-09T06:33:07.966Z,94.69
2016-08-09T06:34:08.667Z,95.46
2016-08-09T06:35:07.952Z,95.36
2016-08-09T06:36:08.642Z,95.17
2016-08-09T06:37:08.630Z,95.94
2016-08-09T06:38:08.628Z,96.03
2016-08-09T06:39:07.903Z,96.03
2016-08-09T06:40:07.895Z,95.94
2016-08-09T06:41:07.887Z,96.32
2016-08-09T06:42:07.875Z,96.51
2016-08-09T06:43:07.868Z,96.18
2016-08-09T06:44:07.861Z,97.13
2016-08-09T06:45:07.847Z,97.04
2016-08-09T06:46:07.840Z,97.04
2016-08-09T06:47:08.532Z,96.18
2016-08-09T06:48:07.817Z,95.98
2016-08-09T06:49:07.808Z,95.61
2016-08-09T06:53:08.473Z,96.03
2016-08-09T06:54:08.467Z,96.32
2016-08-09T06:55:07.749Z,95.27
2016-08-09T06:56:07.736Z,95.75
2016-08-09T06:57:08.441Z,96.03
2016-08-09T06:58:07.722Z,95.46
2016-08-09T06:59:08.416Z,94.4
2016-08-09T07:00:07.704Z,95.65
2016-08-09T07:01:07.696Z,96.22
2016-08-09T07:02:08.386Z,94.89
2016-08-09T07:03:07.667Z,93.07
2016-08-09T07:04:08.363Z,94.12
2016-08-09T07:05:07.847Z,94.6
2016-08-09T07:06:07.651Z,95.07
2016-08-09T07:07:07.627Z,94.98
2016-08-09T07:08:07.623Z,93.3
2016-08-09T07:09:07.608Z,91.49
2016-08-09T07:10:07.598Z,90.53
2016-08-09T07:11:07.588Z,91.58
2016-08-09T07:12:08.286Z,91.72
2016-08-09T07:13:08.276Z,92.44
2016-08-09T07:14:07.609Z,92.15
2016-08-09T07:15:07.553Z,92.63
2016-08-09T07:16:07.548Z,92.73
2016-08-09T07:17:07.534Z,92.25
2016-08-09T07:18:07.524Z,91.49
2016-08-09T07:19:07.515Z,89.86
2016-08-09T07:20:08.210Z,89.76
2016-08-09T07:21:07.491Z,89.18
2016-08-09T07:22:07.484Z,88.23
2016-08-09T07:23:07.488Z,88.03
2016-08-09T07:24:08.173Z,87.84
2016-08-09T07:25:07.463Z,87.94
2016-08-09T07:26:07.447Z,87.37
2016-08-09T07:27:07.442Z,86.6
2016-08-09T07:28:08.133Z,86.02
2016-08-09T07:29:07.425Z,86.79
2016-08-09T07:30:08.116Z,86.02
2016-08-09T07:31:07.396Z,85.93
2016-08-09T07:32:07.398Z,85.64
2016-08-09T07:33:08.086Z,85.68
2016-08-09T07:34:07.372Z,84.91
2016-08-09T07:35:07.360Z,84.91
2016-08-09T07:36:08.063Z,83.86
2016-08-09T07:37:08.048Z,83.95
2016-08-09T07:38:08.039Z,83.58
2016-08-09T07:39:07.339Z,84.53
2016-08-09T07:40:08.022Z,85.21
2016-08-09T07:41:08.010Z,85.68
2016-08-09T07:42:07.294Z,85.78
2016-08-09T07:43:07.998Z,84.34
2016-08-09T07:44:07.989Z,83.67
2016-08-09T07:45:07.269Z,83.67
2016-08-09T07:46:07.966Z,83.38
2016-08-09T07:47:07.257Z,83.04
2016-08-09T07:48:07.958Z,84
2016-08-09T07:49:07.247Z,81.98
2016-08-09T07:50:07.932Z,82.75
2016-08-09T07:51:07.213Z,83.42
2016-08-09T07:52:07.210Z,81.7
2016-08-09T07:53:07.911Z,81.41
2016-08-09T07:54:07.200Z,81.35
2016-08-09T07:55:07.183Z,79.53
2016-08-09T07:56:07.172Z,79.91
2016-08-09T07:57:07.869Z,80.68
2016-08-09T07:58:07.157Z,80.87
2016-08-09T07:59:07.855Z,80.11
2016-08-09T08:00:07.847Z,80.3
2016-08-09T08:01:07.133Z,79.82
2016-08-09T08:02:07.834Z,79.82
2016-08-09T08:03:07.824Z,79.91
2016-08-09T08:04:07.108Z,80.68
2016-08-09T08:05:07.112Z,78.32
2016-08-09T08:06:07.102Z,77.71
2016-08-09T08:07:07.794Z,77.9
2016-08-09T08:08:07.078Z,76.84
2016-08-09T08:09:07.779Z,78.61
2016-08-09T08:10:07.063Z,78.52
2016-08-09T08:11:07.053Z,79.09
2016-08-09T08:12:07.763Z,77.56
2016-08-09T08:13:07.745Z,78.32
2016-08-09T08:14:07.037Z,77.17
2016-08-09T08:15:07.024Z,75.63
2016-08-09T08:16:07.726Z,75.67
2016-08-09T08:17:07.017Z,74.71
2016-08-09T08:18:07.001Z,72.6
2016-08-09T08:19:06.995Z,72.69
2016-08-09T08:20:07.691Z,74.13
2016-08-09T08:21:06.980Z,75.38
2016-08-09T08:22:06.972Z,73.31
2016-08-09T08:23:07.677Z,72.44
2016-08-09T08:24:07.671Z,72.64
2016-08-09T08:25:07.658Z,71.39
2016-08-09T08:26:06.943Z,70.17
2016-08-09T08:27:06.937Z,70.14
2016-08-09T08:28:06.929Z,68.83
2016-08-09T08:29:07.629Z,69.69
2016-08-09T08:30:06.916Z,67.29
2016-08-09T08:31:07.626Z,69.69
2016-08-09T08:32:07.613Z,71.33
2016-08-09T08:33:06.895Z,71.23
2016-08-09T08:34:06.889Z,69.02
2016-08-09T08:35:07.596Z,70.46
2016-08-09T08:36:06.879Z,70.04
2016-08-09T08:37:06.869Z,69.46
2016-08-09T08:38:07.571Z,67.74
2016-08-09T08:39:06.859Z,65.72
2016-08-09T08:40:07.557Z,66
2016-08-09T08:41:07.549Z,67.54
2016-08-09T08:42:07.548Z,67.19
2016-08-09T08:43:06.838Z,67.19
2016-08-09T08:44:06.825Z,64.86
2016-08-09T08:45:06.820Z,65.94
2016-08-09T08:46:06.817Z,64.15
2016-08-09T08:47:06.813Z,65.81
2016-08-09T08:48:06.807Z,63.79
2016-08-09T08:49:06.804Z,60.28
2016-08-09T08:50:07.505Z,56.68
2016-08-09T08:51:06.799Z,56.9
2016-08-09T08:52:06.786Z,53.74
2016-08-09T08:53:06.778Z,52.99
2016-08-09T08:54:06.775Z,52.73
2016-08-09T08:55:06.769Z,52.63
2016-08-09T08:56:07.475Z,53.83
2016-08-09T08:57:07.520Z,56.96
2016-08-09T08:58:06.753Z,59.35
2016-08-09T08:59:06.748Z,59.52
2016-08-09T09:00:06.757Z,58.91
2016-08-09T09:01:06.740Z,59.27
2016-08-09T09:02:06.734Z,60.58
2016-08-09T09:03:06.727Z,63.06
2016-08-09T09:04:07.432Z,63.41
2016-08-09T09:05:07.637Z,63.31
2016-08-09T09:06:06.712Z,63.22
2016-08-09T09:07:07.414Z,64.28
2016-08-09T09:08:07.410Z,64.25
2016-08-09T09:09:06.696Z,64.73
2016-08-09T09:10:07.396Z,63.67
2016-08-09T09:11:06.682Z,65.4
2016-08-09T09:12:07.385Z,66.27
2016-08-09T09:13:07.379Z,66.55
2016-08-09T09:14:06.670Z,66.36
2016-08-09T09:15:07.366Z,67.58
2016-08-09T09:16:07.412Z,66.42
2016-08-09T09:17:06.655Z,67.86
2016-08-09T09:18:06.646Z,68.41
2016-08-09T09:19:06.637Z,70.04
2016-08-09T09:20:07.337Z,70.04
2016-08-09T09:21:06.637Z,70.9
2016-08-09T09:22:06.620Z,71.77
2016-08-09T09:23:07.317Z,72.44
2016-08-09T09:24:06.603Z,71.58
2016-08-09T09:25:06.604Z,71.64
2016-08-09T09:26:07.302Z,71.93
2016-08-09T09:27:07.607Z,72.02
2016-08-09T09:28:06.584Z,71.16
2016-08-09T09:29:06.576Z,69.43
2016-08-09T09:30:07.272Z,71.16
2016-08-09T09:31:07.267Z,72.56
2016-08-09T09:32:06.552Z,73.33
2016-08-09T09:33:07.249Z,73.62
2016-08-09T09:34:07.246Z,74.1
2016-08-09T09:35:07.236Z,74.19
2016-08-09T09:36:06.524Z,73.85
2016-08-09T09:37:07.227Z,73.94
2016-08-09T09:38:06.519Z,73.56
2016-08-09T09:39:07.211Z,74.43
2016-08-09T09:40:06.497Z,72.79
2016-08-09T09:41:07.200Z,72.73
2016-08-09T09:42:06.482Z,71.96
2016-08-09T09:43:06.474Z,70.23
2016-08-09T09:44:07.174Z,71.67
2016-08-09T09:45:06.525Z,71.1
2016-08-09T09:46:07.162Z,71.48
2016-08-09T09:47:07.155Z,70.23
2016-08-09T09:48:07.157Z,71.19
2016-08-09T09:49:06.422Z,72.34
2016-08-09T09:50:06.428Z,72.73
2016-08-09T09:51:06.427Z,72.22
2016-08-09T09:52:07.127Z,70.97
2016-08-09T09:53:06.409Z,71.64
2016-08-09T09:54:07.108Z,71.83
2016-08-09T09:55:06.397Z,72.41
2016-08-09T09:56:06.384Z,72.37
2016-08-09T09:57:07.085Z,72.56
2016-08-09T09:58:06.380Z,73.33
2016-08-09T09:59:06.364Z,74.39
2016-08-09T10:00:07.080Z,74.68
2016-08-09T10:01:06.352Z,74.87
2016-08-09T10:02:06.343Z,74.48
2016-08-09T10:03:07.043Z,74.48
2016-08-09T10:05:06.319Z,74.13
2016-08-09T10:06:06.313Z,74.43
2016-08-09T10:07:06.357Z,75.67
2016-08-09T10:08:06.294Z,74.33
2016-08-09T10:09:06.289Z,75.2
2016-08-09T10:10:06.990Z,72.73
2016-08-09T10:11:06.277Z,73.02
2016-08-09T10:12:06.268Z,71.39
2016-08-09T10:13:06.970Z,71.48
2016-08-09T10:14:06.969Z,71
2016-08-09T10:15:07.060Z,70.9
2016-08-09T10:16:06.242Z,71.67
2016-08-09T10:17:06.941Z,69.27
2016-08-09T10:18:06.287Z,68.83
2016-08-09T10:19:06.937Z,69.18
2016-08-09T10:20:06.925Z,67.77
2016-08-09T10:21:06.212Z,67.19
2016-08-09T10:22:06.921Z,68.06
2016-08-09T10:23:06.904Z,67.96
2016-08-09T10:24:06.186Z,69.02
2016-08-09T10:25:06.183Z,66.91
2016-08-09T10:26:06.190Z,66.78
2016-08-09T10:27:06.877Z,63.02
2016-08-09T10:28:06.871Z,62.93
2016-08-09T10:29:06.866Z,62.45
2016-08-09T10:30:06.153Z,60.91
2016-08-09T10:31:06.157Z,60.52
2016-08-09T10:32:06.851Z,59.37
2016-08-09T10:33:06.843Z,60.36
2016-08-09T10:34:06.840Z,59.43
2016-08-09T10:35:06.129Z,57.05
2016-08-09T10:36:06.120Z,54.25
2016-08-09T10:37:06.820Z,53.61
2016-08-09T10:38:06.820Z,53.89
2016-08-09T10:39:06.110Z,53.34
2016-08-09T10:40:06.809Z,52.98
2016-08-09T10:41:06.803Z,51.85
2016-08-09T10:42:06.096Z,51.37
2016-08-09T10:43:06.092Z,50.04
2016-08-09T10:44:06.794Z,51.13
2016-08-09T10:45:06.796Z,50.35
2016-08-09T10:46:06.083Z,49.99
2016-08-09T10:47:06.791Z,48.08
2016-08-09T10:48:06.788Z,48.76
2016-08-09T10:49:06.081Z,46.83
2016-08-09T10:50:06.079Z,49.54
2016-08-09T10:52:06.074Z,49.51
2016-08-09T10:53:06.780Z,49.92
2016-08-09T10:54:06.782Z,48.76
2016-08-09T10:55:06.785Z,48.47
2016-08-09T10:56:06.081Z,45.37
2016-08-09T10:57:06.078Z,47.6
2016-08-09T10:58:06.780Z,48.9
2016-08-09T10:59:06.073Z,50.71
2016-08-09T11:00:06.079Z,49.27
2016-08-09T11:01:06.781Z,49
2016-08-09T11:02:06.779Z,48.16
2016-08-09T11:03:06.778Z,48.27
2016-08-09T11:04:06.082Z,46.75
2016-08-09T11:05:07.057Z,47.79
2016-08-09T11:06:06.080Z,48.16
2016-08-09T11:07:06.073Z,48.81
2016-08-09T11:08:06.780Z,47.94
2016-08-09T11:09:06.778Z,47.38
2016-08-09T11:10:06.072Z,48.27
2016-08-09T11:11:06.076Z,46.36
2016-08-09T11:12:06.784Z,45.51
2016-08-09T11:13:06.777Z,44.74
2016-08-09T11:14:06.775Z,43.96
2016-08-09T11:15:06.776Z,42.92
2016-08-09T11:16:06.078Z,42.72
2016-08-09T11:17:06.779Z,43.7
2016-08-09T11:18:06.088Z,45.34
2016-08-09T11:19:06.787Z,44.3
2016-08-09T11:20:06.078Z,43.04
2016-08-09T11:21:06.789Z,44.68
2016-08-09T11:22:06.786Z,45.37
2016-08-09T11:23:06.794Z,45.37
2016-08-09T11:24:06.091Z,44.88
2016-08-09T11:25:06.087Z,43.89
2016-08-09T11:26:06.795Z,44.06
2016-08-09T11:27:06.095Z,46.53
2016-08-09T11:28:06.820Z,48.03
2016-08-09T11:29:06.104Z,48.11
2016-08-09T11:30:06.093Z,49.65
2016-08-09T11:31:06.816Z,49.63
2016-08-09T11:32:06.801Z,50.28
2016-08-09T11:33:06.089Z,51.15
2016-08-09T11:34:06.794Z,51.89
2016-08-09T11:35:06.088Z,51.8
2016-08-09T11:36:06.086Z,52.55
2016-08-09T11:37:06.090Z,53.61
2016-08-09T11:38:06.791Z,54.83
2016-08-09T11:39:06.086Z,54.83
2016-08-09T11:40:06.076Z,54.8
2016-08-09T11:41:06.074Z,54.71
2016-08-09T11:42:06.783Z,56.99
2016-08-09T11:43:06.771Z,57.95
2016-08-09T11:44:06.771Z,57.67
2016-08-09T11:45:06.774Z,57.76
2016-08-09T11:46:06.778Z,57.28
2016-08-09T11:47:06.055Z,58.44
2016-08-09T11:48:06.048Z,58.22
2016-08-09T11:49:06.749Z,58.22
2016-08-09T11:50:06.752Z,60.33
2016-08-09T11:51:06.750Z,60.72
2016-08-09T11:52:06.736Z,60.62
2016-08-09T11:53:06.027Z,59.47
2016-08-09T11:54:06.722Z,58.89
2016-08-09T11:55:06.736Z,60.62
2016-08-09T11:56:06.006Z,59.72
2016-08-09T11:57:06.011Z,61.46
2016-08-09T11:58:05.999Z,62.99
2016-08-09T11:59:06.700Z,63.57
2016-08-09T12:00:06.724Z,62.13
2016-08-09T12:01:06.697Z,62.23
2016-08-09T12:02:06.681Z,60.66
2016-08-09T12:03:05.968Z,61.36
2016-08-09T12:04:06.680Z,62.29
2016-08-09T12:05:06.666Z,63.54
2016-08-09T12:06:06.659Z,63.54
2016-08-09T12:07:06.655Z,63.35
2016-08-09T12:08:05.939Z,63.35
2016-08-09T12:09:06.643Z,63.54
2016-08-09T12:10:05.931Z,62.87
2016-08-09T12:11:06.628Z,63.15
2016-08-09T12:12:06.622Z,62.58
2016-08-09T12:13:05.912Z,63.35
2016-08-09T12:14:05.911Z,63.15
2016-08-09T12:15:06.607Z,64.15
2016-08-09T12:16:05.895Z,64.25
2016-08-09T12:17:06.605Z,65.33
2016-08-09T12:18:05.881Z,65.27
2016-08-09T12:19:05.873Z,64.86
2016-08-09T12:20:05.868Z,60.93
2016-08-09T12:21:05.865Z,60.86
2016-08-09T12:22:06.570Z,56.84
2016-08-09T12:23:05.853Z,55.3
2016-08-09T12:24:06.554Z,54.14
2016-08-09T12:25:05.841Z,54.05
2016-08-09T12:26:06.546Z,55.4
2016-08-09T12:27:06.537Z,56.43
2016-08-09T12:28:05.830Z,56.24
2016-08-09T12:29:06.531Z,56.33
2016-08-09T12:30:05.820Z,57.29
2016-08-09T12:31:05.812Z,55.76
2016-08-09T12:32:06.514Z,55.18
2016-08-09T12:33:06.511Z,56.79
2016-08-09T12:34:06.505Z,56.3
2016-08-09T12:35:05.794Z,56.01
2016-08-09T12:36:05.794Z,54.09
2016-08-09T12:37:06.492Z,56.18
2016-08-09T12:38:06.482Z,56.73
2016-08-09T12:39:06.479Z,56.63
2016-08-09T12:40:05.770Z,57.02
2016-08-09T12:41:05.767Z,58.47
2016-08-09T12:42:06.473Z,59.72
2016-08-09T12:43:06.466Z,59.23
2016-08-09T12:44:06.462Z,56.54
2016-08-09T12:45:06.451Z,57.4
2016-08-09T12:46:05.738Z,55.48
2016-08-09T12:47:05.732Z,56.12
2016-08-09T12:48:05.731Z,56.51
2016-08-09T12:49:06.433Z,57.28
2016-08-09T12:50:06.427Z,59.3
2016-08-09T12:51:05.714Z,62.48
2016-08-09T12:52:05.710Z,60.39
2016-08-09T12:53:05.707Z,59.33
2016-08-09T12:54:06.406Z,58.97
2016-08-09T12:55:06.401Z,57.75
2016-08-09T12:56:06.392Z,57.46
2016-08-09T12:57:06.391Z,57.68
2016-08-09T12:58:06.384Z,58.65
2016-08-09T12:59:05.671Z,56.91
2016-08-09T13:00:05.675Z,56.81